sensor_id;sensor_type;location;lat;lon;timestamp;pressure;altitude;pressure_sealevel;temperature;humidity
63954;BME280;50128;52.094;5.232;2022-11-23T00:00:29;99369.0;;;9.3;100.0
63954;BME280;50128;52.094;5.232;2022-11-23T00:03:42;99368.0;;;9.26;100.0
63954;BME280;50128;52.094;5.232;2022-11-23T00:05:19;99370.0;;;9.31;100.0
63954;BME280;50128;52.094;5.232;2022-11-23T00:06:55;99372.0;;;9.24;100.0
63954;BME280;50128;52.094;5.232;2022-11-23T00:10:08;99370.0;;;9.36;100.0
63954;BME280;50128;52.094;5.232;2022-11-23T00:11:44;99375.0;;;9.31;100.0
63954;BME280;50128;52.094;5.232;2022-11-23T00:13:21;99380.0;;;9.35;100.0
63954;BME280;50128;52.094;5.232;2022-11-23T00:16:33;99387.0;;;9.41;100.0
63954;BME280;50128;52.094;5.232;2022-11-23T00:18:09;99389.0;;;9.33;100.0
63954;BME280;50128;52.094;5.232;2022-11-23T00:19:45;99386.0;;;9.34;100.0
63954;BME280;50128;52.094;5.232;2022-11-23T00:21:23;99389.0;;;9.31;100.0
63954;BME280;50128;52.094;5.232;2022-11-23T00:24:37;99394.0;;;9.38;100.0
63954;BME280;50128;52.094;5.232;2022-11-23T00:26:14;99393.0;;;9.48;100.0
63954;BME280;50128;52.094;5.232;2022-11-23T00:27:50;99392.0;;;9.47;100.0
63954;BME280;50128;52.094;5.232;2022-11-23T00:31:03;99394.0;;;9.5;100.0
63954;BME280;50128;52.094;5.232;2022-11-23T00:32:40;99398.0;;;9.39;100.0
63954;BME280;50128;52.094;5.232;2022-11-23T00:34:16;99401.0;;;9.25;100.0
63954;BME280;50128;52.094;5.232;2022-11-23T00:37:38;99403.0;;;9.36;100.0
63954;BME280;50128;52.094;5.232;2022-11-23T00:39:14;99405.0;;;9.44;100.0
63954;BME280;50128;52.094;5.232;2022-11-23T00:40:56;99406.0;;;9.35;100.0
63954;BME280;50128;52.094;5.232;2022-11-23T00:42:32;99414.0;;;9.33;100.0
63954;BME280;50128;52.094;5.232;2022-11-23T00:45:45;99415.0;;;9.39;100.0
63954;BME280;50128;52.094;5.232;2022-11-23T00:47:21;99418.0;;;9.56;100.0
63954;BME280;50128;52.094;5.232;2022-11-23T00:48:57;99417.0;;;9.57;100.0
63954;BME280;50128;52.094;5.232;2022-11-23T00:52:09;99415.0;;;9.42;100.0
63954;BME280;50128;52.094;5.232;2022-11-23T00:53:46;99418.0;;;9.32;100.0
63954;BME280;50128;52.094;5.232;2022-11-23T00:55:24;99420.0;;;9.43;100.0
63954;BME280;50128;52.094;5.232;2022-11-23T00:57:00;99420.0;;;9.3;100.0
63954;BME280;50128;52.094;5.232;2022-11-23T01:00:15;99425.0;;;9.3;100.0
63954;BME280;50128;52.094;5.232;2022-11-23T01:01:51;99428.0;;;9.28;100.0
63954;BME280;50128;52.094;5.232;2022-11-23T01:03:29;99430.0;;;9.36;100.0
63954;BME280;50128;52.094;5.232;2022-11-23T01:06:42;99434.0;;;9.4;100.0
63954;BME280;50128;52.094;5.232;2022-11-23T01:08:18;99433.0;;;9.35;100.0
63954;BME280;50128;52.094;5.232;2022-11-23T01:09:55;99433.0;;;9.4;100.0
63954;BME280;50128;52.094;5.232;2022-11-23T01:13:08;99431.0;;;9.31;100.0
63954;BME280;50128;52.094;5.232;2022-11-23T01:14:44;99435.0;;;9.24;100.0
63954;BME280;50128;52.094;5.232;2022-11-23T01:16:22;99435.0;;;9.24;100.0
63954;BME280;50128;52.094;5.232;2022-11-23T01:17:59;99440.0;;;9.36;100.0
63954;BME280;50128;52.094;5.232;2022-11-23T01:21:12;99441.0;;;9.33;100.0
63954;BME280;50128;52.094;5.232;2022-11-23T01:22:50;99438.0;;;9.3;100.0
63954;BME280;50128;52.094;5.232;2022-11-23T01:24:26;99436.0;;;9.28;100.0
63954;BME280;50128;52.094;5.232;2022-11-23T01:27:41;99441.0;;;9.32;100.0
63954;BME280;50128;52.094;5.232;2022-11-23T01:29:17;99437.0;;;9.16;100.0
63954;BME280;50128;52.094;5.232;2022-11-23T01:30:53;99440.0;;;9.26;100.0
63954;BME280;50128;52.094;5.232;2022-11-23T01:32:29;99442.0;;;9.22;100.0
63954;BME280;50128;52.094;5.232;2022-11-23T01:35:43;99447.0;;;9.41;100.0
63954;BME280;50128;52.094;5.232;2022-11-23T01:37:19;99441.0;;;9.3;100.0
63954;BME280;50128;52.094;5.232;2022-11-23T01:38:56;99439.0;;;9.39;100.0
63954;BME280;50128;52.094;5.232;2022-11-23T01:42:16;99443.0;;;9.31;100.0
63954;BME280;50128;52.094;5.232;2022-11-23T01:43:52;99446.0;;;9.41;100.0
63954;BME280;50128;52.094;5.232;2022-11-23T01:45:33;99450.0;;;9.35;100.0
63954;BME280;50128;52.094;5.232;2022-11-23T01:47:10;99455.0;;;9.32;100.0
63954;BME280;50128;52.094;5.232;2022-11-23T01:50:30;99455.0;;;9.39;100.0
63954;BME280;50128;52.094;5.232;2022-11-23T01:52:09;99452.0;;;9.31;100.0
63954;BME280;50128;52.094;5.232;2022-11-23T01:53:51;99455.0;;;9.48;100.0
63954;BME280;50128;52.094;5.232;2022-11-23T01:55:29;99458.0;;;9.3;100.0
63954;BME280;50128;52.094;5.232;2022-11-23T01:58:55;99455.0;;;9.23;100.0
63954;BME280;50128;52.094;5.232;2022-11-23T02:00:35;99460.0;;;9.32;100.0
63954;BME280;50128;52.094;5.232;2022-11-23T02:02:13;99462.0;;;9.38;100.0
63954;BME280;50128;52.094;5.232;2022-11-23T02:03:50;99464.0;;;9.28;100.0
63954;BME280;50128;52.094;5.232;2022-11-23T02:07:13;99470.0;;;9.25;100.0
63954;BME280;50128;52.094;5.232;2022-11-23T02:08:52;99464.0;;;9.28;100.0
63954;BME280;50128;52.094;5.232;2022-11-23T02:10:30;99473.0;;;9.26;100.0
63954;BME280;50128;52.094;5.232;2022-11-23T02:13:47;99470.0;;;9.3;100.0
63954;BME280;50128;52.094;5.232;2022-11-23T02:15:24;99473.0;;;9.31;100.0
63954;BME280;50128;52.094;5.232;2022-11-23T02:17:00;99473.0;;;9.31;100.0
63954;BME280;50128;52.094;5.232;2022-11-23T02:18:39;99476.0;;;9.28;100.0
63954;BME280;50128;52.094;5.232;2022-11-23T02:21:55;99473.0;;;9.4;100.0
63954;BME280;50128;52.094;5.232;2022-11-23T02:23:40;99477.0;;;9.3;100.0
63954;BME280;50128;52.094;5.232;2022-11-23T02:25:27;99481.0;;;9.28;100.0
63954;BME280;50128;52.094;5.232;2022-11-23T02:27:12;99478.0;;;9.34;100.0
63954;BME280;50128;52.094;5.232;2022-11-23T02:30:33;99477.0;;;9.41;100.0
63954;BME280;50128;52.094;5.232;2022-11-23T02:32:17;99478.0;;;9.31;100.0
63954;BME280;50128;52.094;5.232;2022-11-23T02:33:55;99478.0;;;9.21;100.0
63954;BME280;50128;52.094;5.232;2022-11-23T02:35:33;99481.0;;;9.15;100.0
63954;BME280;50128;52.094;5.232;2022-11-23T02:38:46;99482.0;;;9.15;100.0
63954;BME280;50128;52.094;5.232;2022-11-23T02:40:26;99484.0;;;9.11;100.0
63954;BME280;50128;52.094;5.232;2022-11-23T02:42:04;99484.0;;;9.14;100.0
63954;BME280;50128;52.094;5.232;2022-11-23T02:43:41;99480.0;;;9.08;100.0
63954;BME280;50128;52.094;5.232;2022-11-23T02:47:03;99480.0;;;9.06;100.0
63954;BME280;50128;52.094;5.232;2022-11-23T02:48:41;99478.0;;;9.08;100.0
63954;BME280;50128;52.094;5.232;2022-11-23T02:50:17;99484.0;;;9.06;100.0
63954;BME280;50128;52.094;5.232;2022-11-23T02:53:29;99488.0;;;9.06;100.0
63954;BME280;50128;52.094;5.232;2022-11-23T02:55:06;99490.0;;;9.11;100.0
63954;BME280;50128;52.094;5.232;2022-11-23T02:56:43;99489.0;;;9.11;100.0
63954;BME280;50128;52.094;5.232;2022-11-23T02:58:19;99488.0;;;9.14;100.0
63954;BME280;50128;52.094;5.232;2022-11-23T03:01:32;99482.0;;;9.06;100.0
63954;BME280;50128;52.094;5.232;2022-11-23T03:03:09;99487.0;;;9.14;100.0
63954;BME280;50128;52.094;5.232;2022-11-23T03:04:45;99489.0;;;9.1;100.0
63954;BME280;50128;52.094;5.232;2022-11-23T03:07:57;99486.0;;;9.02;100.0
63954;BME280;50128;52.094;5.232;2022-11-23T03:09:33;99488.0;;;8.97;100.0
63954;BME280;50128;52.094;5.232;2022-11-23T03:11:10;99493.0;;;8.98;100.0
63954;BME280;50128;52.094;5.232;2022-11-23T03:14:22;99498.0;;;8.99;100.0
63954;BME280;50128;52.094;5.232;2022-11-23T03:15:58;99495.0;;;9.02;100.0
63954;BME280;50128;52.094;5.232;2022-11-23T03:17:35;99495.0;;;8.99;100.0
63954;BME280;50128;52.094;5.232;2022-11-23T03:19:11;99495.0;;;9.05;100.0
63954;BME280;50128;52.094;5.232;2022-11-23T03:22:23;99494.0;;;8.97;100.0
63954;BME280;50128;52.094;5.232;2022-11-23T03:23:59;99499.0;;;8.89;100.0
63954;BME280;50128;52.094;5.232;2022-11-23T03:25:35;99500.0;;;8.93;100.0
63954;BME280;50128;52.094;5.232;2022-11-23T03:28:48;99505.0;;;9.02;100.0
63954;BME280;50128;52.094;5.232;2022-11-23T03:30:24;99503.0;;;9.01;100.0
63954;BME280;50128;52.094;5.232;2022-11-23T03:32:00;99497.0;;;8.97;100.0
63954;BME280;50128;52.094;5.232;2022-11-23T03:35:14;99501.0;;;9.05;100.0
63954;BME280;50128;52.094;5.232;2022-11-23T03:36:50;99496.0;;;9.02;100.0
63954;BME280;50128;52.094;5.232;2022-11-23T03:38:26;99497.0;;;8.94;100.0
63954;BME280;50128;52.094;5.232;2022-11-23T03:41:39;99498.0;;;9.0;100.0
63954;BME280;50128;52.094;5.232;2022-11-23T03:43:16;99497.0;;;9.02;100.0
63954;BME280;50128;52.094;5.232;2022-11-23T03:44:52;99497.0;;;9.08;100.0
63954;BME280;50128;52.094;5.232;2022-11-23T03:46:28;99499.0;;;9.18;99.45
63954;BME280;50128;52.094;5.232;2022-11-23T03:49:42;99499.0;;;9.25;99.29
63954;BME280;50128;52.094;5.232;2022-11-23T03:51:18;99505.0;;;9.1;99.32
63954;BME280;50128;52.094;5.232;2022-11-23T03:52:55;99501.0;;;9.07;100.0
63954;BME280;50128;52.094;5.232;2022-11-23T03:56:08;99497.0;;;9.01;100.0
63954;BME280;50128;52.094;5.232;2022-11-23T03:57:46;99495.0;;;9.06;100.0
63954;BME280;50128;52.094;5.232;2022-11-23T04:00:59;99490.0;;;9.07;99.97
63954;BME280;50128;52.094;5.232;2022-11-23T04:04:12;99491.0;;;9.1;99.86
63954;BME280;50128;52.094;5.232;2022-11-23T04:05:48;99487.0;;;9.16;99.73
63954;BME280;50128;52.094;5.232;2022-11-23T04:07:24;99482.0;;;9.07;99.56
63954;BME280;50128;52.094;5.232;2022-11-23T04:10:37;99487.0;;;9.18;99.37
63954;BME280;50128;52.094;5.232;2022-11-23T04:12:13;99484.0;;;9.28;98.96
63954;BME280;50128;52.094;5.232;2022-11-23T04:13:49;99486.0;;;9.23;99.28
63954;BME280;50128;52.094;5.232;2022-11-23T04:17:02;99488.0;;;9.16;99.48
63954;BME280;50128;52.094;5.232;2022-11-23T04:18:39;99486.0;;;9.32;98.77
63954;BME280;50128;52.094;5.232;2022-11-23T04:20:16;99485.0;;;9.43;98.23
63954;BME280;50128;52.094;5.232;2022-11-23T04:23:28;99493.0;;;9.25;99.01
63954;BME280;50128;52.094;5.232;2022-11-23T04:25:05;99497.0;;;9.31;98.82
63954;BME280;50128;52.094;5.232;2022-11-23T04:26:42;99498.0;;;9.24;99.09
63954;BME280;50128;52.094;5.232;2022-11-23T04:28:18;99498.0;;;9.22;99.33
63954;BME280;50128;52.094;5.232;2022-11-23T04:31:30;99492.0;;;9.16;99.18
63954;BME280;50128;52.094;5.232;2022-11-23T04:33:07;99495.0;;;9.23;99.29
63954;BME280;50128;52.094;5.232;2022-11-23T04:34:44;99494.0;;;9.22;99.01
63954;BME280;50128;52.094;5.232;2022-11-23T04:37:56;99497.0;;;9.23;98.87
63954;BME280;50128;52.094;5.232;2022-11-23T04:39:32;99498.0;;;9.24;98.59
63954;BME280;50128;52.094;5.232;2022-11-23T04:41:09;99502.0;;;9.18;99.25
63954;BME280;50128;52.094;5.232;2022-11-23T04:44:22;99500.0;;;9.27;98.43
63954;BME280;50128;52.094;5.232;2022-11-23T04:45:58;99500.0;;;9.18;98.68
63954;BME280;50128;52.094;5.232;2022-11-23T04:47:36;99497.0;;;9.14;99.21
63954;BME280;50128;52.094;5.232;2022-11-23T04:49:12;99497.0;;;9.18;99.0
63954;BME280;50128;52.094;5.232;2022-11-23T04:52:25;99496.0;;;9.03;99.62
63954;BME280;50128;52.094;5.232;2022-11-23T04:54:01;99496.0;;;9.22;98.74
63954;BME280;50128;52.094;5.232;2022-11-23T04:55:38;99494.0;;;9.14;98.9
63954;BME280;50128;52.094;5.232;2022-11-23T04:58:50;99499.0;;;9.13;98.94
63954;BME280;50128;52.094;5.232;2022-11-23T05:00:26;99494.0;;;9.09;99.01
63954;BME280;50128;52.094;5.232;2022-11-23T05:02:03;99496.0;;;9.09;98.95
63954;BME280;50128;52.094;5.232;2022-11-23T05:05:16;99494.0;;;8.99;99.16
63954;BME280;50128;52.094;5.232;2022-11-23T05:06:52;99493.0;;;9.05;98.89
63954;BME280;50128;52.094;5.232;2022-11-23T05:08:29;99494.0;;;9.0;98.97
63954;BME280;50128;52.094;5.232;2022-11-23T05:10:07;99492.0;;;9.01;99.09
63954;BME280;50128;52.094;5.232;2022-11-23T05:13:19;99493.0;;;8.84;100.0
63954;BME280;50128;52.094;5.232;2022-11-23T05:14:55;99492.0;;;8.98;99.69
63954;BME280;50128;52.094;5.232;2022-11-23T05:16:32;99491.0;;;9.07;99.22
63954;BME280;50128;52.094;5.232;2022-11-23T05:19:47;99486.0;;;9.11;99.12
63954;BME280;50128;52.094;5.232;2022-11-23T05:21:23;99491.0;;;8.91;99.79
63954;BME280;50128;52.094;5.232;2022-11-23T05:23:00;99493.0;;;9.01;99.51
63954;BME280;50128;52.094;5.232;2022-11-23T05:26:13;99494.0;;;9.08;99.32
63954;BME280;50128;52.094;5.232;2022-11-23T05:27:50;99498.0;;;9.06;99.37
63954;BME280;50128;52.094;5.232;2022-11-23T05:29:26;99498.0;;;9.05;99.18
63954;BME280;50128;52.094;5.232;2022-11-23T05:31:03;99490.0;;;9.06;99.14
63954;BME280;50128;52.094;5.232;2022-11-23T05:34:17;99494.0;;;9.17;98.64
63954;BME280;50128;52.094;5.232;2022-11-23T05:35:53;99495.0;;;9.14;98.59
63954;BME280;50128;52.094;5.232;2022-11-23T05:37:29;99497.0;;;9.28;98.19
63954;BME280;50128;52.094;5.232;2022-11-23T05:40:43;99505.0;;;9.14;98.57
63954;BME280;50128;52.094;5.232;2022-11-23T05:42:20;99509.0;;;9.07;98.51
63954;BME280;50128;52.094;5.232;2022-11-23T05:43:56;99507.0;;;9.05;98.95
63954;BME280;50128;52.094;5.232;2022-11-23T05:47:08;99515.0;;;9.13;98.36
63954;BME280;50128;52.094;5.232;2022-11-23T05:48:44;99513.0;;;9.16;98.3
63954;BME280;50128;52.094;5.232;2022-11-23T05:50:22;99514.0;;;9.28;97.28
63954;BME280;50128;52.094;5.232;2022-11-23T05:51:59;99512.0;;;9.24;97.4
63954;BME280;50128;52.094;5.232;2022-11-23T05:55:12;99516.0;;;9.36;97.12
63954;BME280;50128;52.094;5.232;2022-11-23T05:56:48;99518.0;;;9.26;97.19
63954;BME280;50128;52.094;5.232;2022-11-23T05:58:24;99516.0;;;9.28;96.92
63954;BME280;50128;52.094;5.232;2022-11-23T06:01:39;99521.0;;;9.28;96.91
63954;BME280;50128;52.094;5.232;2022-11-23T06:03:15;99520.0;;;9.36;96.2
63954;BME280;50128;52.094;5.232;2022-11-23T06:04:51;99517.0;;;9.3;96.57
63954;BME280;50128;52.094;5.232;2022-11-23T06:08:04;99518.0;;;9.31;96.32
63954;BME280;50128;52.094;5.232;2022-11-23T06:09:40;99514.0;;;9.35;95.97
63954;BME280;50128;52.094;5.232;2022-11-23T06:11:16;99511.0;;;9.47;95.44
63954;BME280;50128;52.094;5.232;2022-11-23T06:12:52;99513.0;;;9.47;95.01
63954;BME280;50128;52.094;5.232;2022-11-23T06:16:05;99510.0;;;9.47;94.67
63954;BME280;50128;52.094;5.232;2022-11-23T06:17:41;99513.0;;;9.4;94.88
63954;BME280;50128;52.094;5.232;2022-11-23T06:19:17;99512.0;;;9.36;94.97
63954;BME280;50128;52.094;5.232;2022-11-23T06:22:29;99512.0;;;9.4;94.72
63954;BME280;50128;52.094;5.232;2022-11-23T06:24:06;99507.0;;;9.34;94.99
63954;BME280;50128;52.094;5.232;2022-11-23T06:25:42;99513.0;;;9.34;94.83
63954;BME280;50128;52.094;5.232;2022-11-23T06:28:54;99506.0;;;9.32;94.24
63954;BME280;50128;52.094;5.232;2022-11-23T06:30:30;99508.0;;;9.08;95.38
63954;BME280;50128;52.094;5.232;2022-11-23T06:32:07;99509.0;;;9.19;95.14
63954;BME280;50128;52.094;5.232;2022-11-23T06:33:44;99509.0;;;9.23;94.8
63954;BME280;50128;52.094;5.232;2022-11-23T06:36:57;99511.0;;;9.18;94.94
63954;BME280;50128;52.094;5.232;2022-11-23T06:38:33;99508.0;;;9.13;94.84
63954;BME280;50128;52.094;5.232;2022-11-23T06:40:10;99506.0;;;9.06;95.15
63954;BME280;50128;52.094;5.232;2022-11-23T06:43:23;99507.0;;;9.01;95.24
63954;BME280;50128;52.094;5.232;2022-11-23T06:44:59;99500.0;;;9.1;94.53
63954;BME280;50128;52.094;5.232;2022-11-23T06:46:35;99506.0;;;9.11;94.39
63954;BME280;50128;52.094;5.232;2022-11-23T06:49:49;99507.0;;;9.07;94.14
63954;BME280;50128;52.094;5.232;2022-11-23T06:51:25;99514.0;;;9.14;93.25
63954;BME280;50128;52.094;5.232;2022-11-23T06:53:01;99515.0;;;8.89;93.29
63954;BME280;50128;52.094;5.232;2022-11-23T06:54:38;99517.0;;;9.01;93.12
63954;BME280;50128;52.094;5.232;2022-11-23T06:57:52;99527.0;;;8.84;93.05
63954;BME280;50128;52.094;5.232;2022-11-23T06:59:28;99530.0;;;8.81;93.23
63954;BME280;50128;52.094;5.232;2022-11-23T07:01:06;99537.0;;;8.73;93.57
63954;BME280;50128;52.094;5.232;2022-11-23T07:04:26;99535.0;;;8.63;93.4
63954;BME280;50128;52.094;5.232;2022-11-23T07:06:04;99535.0;;;8.74;93.14
63954;BME280;50128;52.094;5.232;2022-11-23T07:07:40;99538.0;;;8.66;93.13
63954;BME280;50128;52.094;5.232;2022-11-23T07:09:17;99540.0;;;8.58;93.15
63954;BME280;50128;52.094;5.232;2022-11-23T07:12:35;99540.0;;;8.66;92.94
63954;BME280;50128;52.094;5.232;2022-11-23T07:14:11;99541.0;;;8.45;93.42
63954;BME280;50128;52.094;5.232;2022-11-23T07:15:47;99544.0;;;8.55;93.08
63954;BME280;50128;52.094;5.232;2022-11-23T07:19:00;99546.0;;;8.55;92.92
63954;BME280;50128;52.094;5.232;2022-11-23T07:20:36;99555.0;;;8.38;93.86
63954;BME280;50128;52.094;5.232;2022-11-23T07:22:12;99553.0;;;8.32;93.84
63954;BME280;50128;52.094;5.232;2022-11-23T07:25:25;99558.0;;;8.31;94.08
63954;BME280;50128;52.094;5.232;2022-11-23T07:27:01;99564.0;;;8.42;93.81
63954;BME280;50128;52.094;5.232;2022-11-23T07:28:37;99570.0;;;8.36;94.27
63954;BME280;50128;52.094;5.232;2022-11-23T07:30:14;99567.0;;;8.33;94.9
63954;BME280;50128;52.094;5.232;2022-11-23T07:33:27;99568.0;;;8.25;95.57
63954;BME280;50128;52.094;5.232;2022-11-23T07:35:03;99567.0;;;8.27;95.68
63954;BME280;50128;52.094;5.232;2022-11-23T07:36:40;99572.0;;;8.28;96.31
63954;BME280;50128;52.094;5.232;2022-11-23T07:39:52;99574.0;;;8.34;96.22
63954;BME280;50128;52.094;5.232;2022-11-23T07:41:28;99580.0;;;8.43;95.79
63954;BME280;50128;52.094;5.232;2022-11-23T07:43:06;99580.0;;;8.4;95.85
63954;BME280;50128;52.094;5.232;2022-11-23T07:46:18;99582.0;;;8.31;96.51
63954;BME280;50128;52.094;5.232;2022-11-23T07:47:57;99585.0;;;8.39;96.63
63954;BME280;50128;52.094;5.232;2022-11-23T07:49:34;99587.0;;;8.48;96.46
63954;BME280;50128;52.094;5.232;2022-11-23T07:51:10;99586.0;;;8.41;96.72
63954;BME280;50128;52.094;5.232;2022-11-23T07:54:22;99591.0;;;8.44;96.67
63954;BME280;50128;52.094;5.232;2022-11-23T07:55:58;99593.0;;;8.53;96.85
63954;BME280;50128;52.094;5.232;2022-11-23T07:57:35;99595.0;;;8.55;97.02
63954;BME280;50128;52.094;5.232;2022-11-23T08:00:47;99600.0;;;8.61;96.77
63954;BME280;50128;52.094;5.232;2022-11-23T08:02:23;99601.0;;;8.64;96.76
63954;BME280;50128;52.094;5.232;2022-11-23T08:03:59;99603.0;;;8.64;97.05
63954;BME280;50128;52.094;5.232;2022-11-23T08:07:12;99603.0;;;8.74;96.48
63954;BME280;50128;52.094;5.232;2022-11-23T08:08:48;99606.0;;;8.64;96.8
63954;BME280;50128;52.094;5.232;2022-11-23T08:10:26;99603.0;;;8.74;96.78
63954;BME280;50128;52.094;5.232;2022-11-23T08:12:03;99603.0;;;8.76;96.71
63954;BME280;50128;52.094;5.232;2022-11-23T08:15:16;99610.0;;;8.76;96.76
63954;BME280;50128;52.094;5.232;2022-11-23T08:16:52;99608.0;;;8.73;97.08
63954;BME280;50128;52.094;5.232;2022-11-23T08:18:28;99609.0;;;8.75;96.79
63954;BME280;50128;52.094;5.232;2022-11-23T08:21:42;99608.0;;;8.81;97.36
63954;BME280;50128;52.094;5.232;2022-11-23T08:23:19;99609.0;;;8.77;97.79
63954;BME280;50128;52.094;5.232;2022-11-23T08:24:56;99612.0;;;8.83;97.61
63954;BME280;50128;52.094;5.232;2022-11-23T08:28:09;99614.0;;;8.75;98.22
63954;BME280;50128;52.094;5.232;2022-11-23T08:29:45;99610.0;;;8.73;98.86
63954;BME280;50128;52.094;5.232;2022-11-23T08:31:22;99616.0;;;8.66;99.49
63954;BME280;50128;52.094;5.232;2022-11-23T08:32:58;99610.0;;;8.82;99.14
63954;BME280;50128;52.094;5.232;2022-11-23T08:45:56;99609.0;;;8.85;99.55
63954;BME280;50128;52.094;5.232;2022-11-23T08:49:09;99610.0;;;8.91;98.96
63954;BME280;50128;52.094;5.232;2022-11-23T08:50:45;99606.0;;;8.96;99.06
63954;BME280;50128;52.094;5.232;2022-11-23T08:52:21;99606.0;;;8.82;98.66
63954;BME280;50128;52.094;5.232;2022-11-23T08:53:57;99607.0;;;9.07;97.95
63954;BME280;50128;52.094;5.232;2022-11-23T08:57:10;99608.0;;;9.06;97.51
63954;BME280;50128;52.094;5.232;2022-11-23T08:58:47;99610.0;;;9.14;97.53
63954;BME280;50128;52.094;5.232;2022-11-23T09:00:25;99609.0;;;9.1;96.95
63954;BME280;50128;52.094;5.232;2022-11-23T09:03:38;99607.0;;;9.14;96.55
63954;BME280;50128;52.094;5.232;2022-11-23T09:05:15;99606.0;;;9.11;95.74
63954;BME280;50128;52.094;5.232;2022-11-23T09:06:53;99605.0;;;9.24;94.92
63954;BME280;50128;52.094;5.232;2022-11-23T09:10:07;99602.0;;;9.35;94.23
63954;BME280;50128;52.094;5.232;2022-11-23T09:11:43;99605.0;;;9.15;94.39
63954;BME280;50128;52.094;5.232;2022-11-23T09:13:20;99597.0;;;9.18;94.14
63954;BME280;50128;52.094;5.232;2022-11-23T09:14:56;99605.0;;;9.16;94.03
63954;BME280;50128;52.094;5.232;2022-11-23T09:18:09;99601.0;;;9.02;94.11
63954;BME280;50128;52.094;5.232;2022-11-23T09:19:45;99601.0;;;9.13;94.27
63954;BME280;50128;52.094;5.232;2022-11-23T09:21:21;99599.0;;;9.14;93.37
63954;BME280;50128;52.094;5.232;2022-11-23T09:24:33;99596.0;;;9.23;93.17
63954;BME280;50128;52.094;5.232;2022-11-23T09:26:09;99594.0;;;9.11;91.64
63954;BME280;50128;52.094;5.232;2022-11-23T09:27:45;99595.0;;;9.33;91.52
63954;BME280;50128;52.094;5.232;2022-11-23T09:31:02;99591.0;;;9.39;90.73
63954;BME280;50128;52.094;5.232;2022-11-23T09:32:40;99593.0;;;9.36;90.32
63954;BME280;50128;52.094;5.232;2022-11-23T09:34:16;99585.0;;;9.26;89.29
63954;BME280;50128;52.094;5.232;2022-11-23T09:35:56;99582.0;;;9.48;88.48
63954;BME280;50128;52.094;5.232;2022-11-23T09:39:11;99580.0;;;9.48;88.46
63954;BME280;50128;52.094;5.232;2022-11-23T09:40:53;99580.0;;;9.18;87.35
63954;BME280;50128;52.094;5.232;2022-11-23T09:42:44;99583.0;;;9.34;87.71
63954;BME280;50128;52.094;5.232;2022-11-23T09:44:34;99575.0;;;9.39;87.29
63954;BME280;50128;52.094;5.232;2022-11-23T09:46:24;99577.0;;;9.36;86.76
63954;BME280;50128;52.094;5.232;2022-11-23T10:19:19;99523.0;;;9.46;84.41
63954;BME280;50128;52.094;5.232;2022-11-23T10:21:07;99530.0;;;9.48;83.76
63954;BME280;50128;52.094;5.232;2022-11-23T10:22:54;99523.0;;;9.58;83.73
63954;BME280;50128;52.094;5.232;2022-11-23T10:24:37;99522.0;;;9.69;84.01
63954;BME280;50128;52.094;5.232;2022-11-23T10:26:16;99527.0;;;9.78;83.32
63954;BME280;50128;52.094;5.232;2022-11-23T10:29:36;99530.0;;;9.75;83.85
63954;BME280;50128;52.094;5.232;2022-11-23T10:31:15;99527.0;;;9.69;83.73
63954;BME280;50128;52.094;5.232;2022-11-23T10:32:56;99525.0;;;9.84;83.23
63954;BME280;50128;52.094;5.232;2022-11-23T10:34:46;99538.0;;;9.72;82.95
63954;BME280;50128;52.094;5.232;2022-11-23T10:36:24;99546.0;;;9.6;82.83
63954;BME280;50128;52.094;5.232;2022-11-23T10:39:45;99540.0;;;9.67;83.32
63954;BME280;50128;52.094;5.232;2022-11-23T10:41:21;99536.0;;;9.64;83.17
63954;BME280;50128;52.094;5.232;2022-11-23T10:43:00;99535.0;;;9.77;82.65
63954;BME280;50128;52.094;5.232;2022-11-23T10:46:26;99536.0;;;9.84;82.32
63954;BME280;50128;52.094;5.232;2022-11-23T10:48:32;99536.0;;;9.89;82.2
63954;BME280;50128;52.094;5.232;2022-11-23T10:50:22;99536.0;;;9.71;81.7
63954;BME280;50128;52.094;5.232;2022-11-23T10:52:04;99530.0;;;9.77;82.17
63954;BME280;50128;52.094;5.232;2022-11-23T10:53:41;99537.0;;;9.74;82.27
63954;BME280;50128;52.094;5.232;2022-11-23T10:55:23;99531.0;;;9.85;82.18
63954;BME280;50128;52.094;5.232;2022-11-23T10:58:56;99531.0;;;9.93;81.59
63954;BME280;50128;52.094;5.232;2022-11-23T11:00:33;99521.0;;;9.83;81.49
63954;BME280;50128;52.094;5.232;2022-11-23T11:02:14;99526.0;;;9.91;81.58
63954;BME280;50128;52.094;5.232;2022-11-23T11:03:53;99523.0;;;9.97;81.83
63954;BME280;50128;52.094;5.232;2022-11-23T11:07:18;99530.0;;;10.1;81.69
63954;BME280;50128;52.094;5.232;2022-11-23T11:09:04;99531.0;;;10.06;81.97
63954;BME280;50128;52.094;5.232;2022-11-23T11:10:57;99532.0;;;10.11;81.67
63954;BME280;50128;52.094;5.232;2022-11-23T11:12:34;99528.0;;;10.09;80.75
63954;BME280;50128;52.094;5.232;2022-11-23T11:14:14;99528.0;;;9.94;81.05
63954;BME280;50128;52.094;5.232;2022-11-23T11:17:32;99531.0;;;9.96;80.91
63954;BME280;50128;52.094;5.232;2022-11-23T11:19:24;99531.0;;;9.96;81.66
63954;BME280;50128;52.094;5.232;2022-11-23T11:21:04;99536.0;;;9.85;80.86
63954;BME280;50128;52.094;5.232;2022-11-23T11:22:42;99533.0;;;9.81;81.86
63954;BME280;50128;52.094;5.232;2022-11-23T11:26:12;99532.0;;;9.97;81.13
63954;BME280;50128;52.094;5.232;2022-11-23T11:27:55;99530.0;;;9.89;81.81
63954;BME280;50128;52.094;5.232;2022-11-23T11:29:34;99526.0;;;9.81;80.91
63954;BME280;50128;52.094;5.232;2022-11-23T11:31:32;99531.0;;;9.73;81.22
63954;BME280;50128;52.094;5.232;2022-11-23T11:33:18;99526.0;;;9.67;81.55
63954;BME280;50128;52.094;5.232;2022-11-23T11:35:01;99517.0;;;9.81;81.33
63954;BME280;50128;52.094;5.232;2022-11-23T11:38:32;99513.0;;;9.93;81.2
63954;BME280;50128;52.094;5.232;2022-11-23T11:40:16;99501.0;;;9.69;82.01
63954;BME280;50128;52.094;5.232;2022-11-23T11:41:59;99495.0;;;9.84;81.63
63954;BME280;50128;52.094;5.232;2022-11-23T11:43:41;99486.0;;;9.92;80.27
63954;BME280;50128;52.094;5.232;2022-11-23T11:47:05;99484.0;;;9.73;80.84
63954;BME280;50128;52.094;5.232;2022-11-23T11:48:48;99481.0;;;9.89;81.8
63954;BME280;50128;52.094;5.232;2022-11-23T11:50:30;99480.0;;;9.9;80.52
63954;BME280;50128;52.094;5.232;2022-11-23T11:52:11;99478.0;;;9.84;80.94
63954;BME280;50128;52.094;5.232;2022-11-23T11:53:56;99465.0;;;9.89;80.44
63954;BME280;50128;52.094;5.232;2022-11-23T11:57:29;99459.0;;;9.94;80.66
63954;BME280;50128;52.094;5.232;2022-11-23T11:59:13;99456.0;;;10.06;80.03
63954;BME280;50128;52.094;5.232;2022-11-23T12:00:57;99458.0;;;10.13;80.55
63954;BME280;50128;52.094;5.232;2022-11-23T12:02:56;99456.0;;;9.89;80.31
63954;BME280;50128;52.094;5.232;2022-11-23T12:04:39;99460.0;;;9.77;80.33